createdAt,value
2023-04-04T00:02:16.876Z,2.86
2023-04-04T00:05:02.303Z,2.84
2023-04-04T00:07:47.820Z,2.80
2023-04-04T00:10:32.816Z,2.76
2023-04-04T00:13:18.053Z,2.81
2023-04-04T00:16:03.717Z,2.80
2023-04-04T00:18:48.951Z,2.82
2023-04-04T00:21:34.378Z,2.85
2023-04-04T00:24:19.802Z,2.79
2023-04-04T00:27:04.841Z,2.75
2023-04-04T00:29:50.089Z,2.71
2023-04-04T00:32:35.184Z,2.63
2023-04-04T00:35:20.623Z,2.65
2023-04-04T00:38:05.716Z,2.59
2023-04-04T00:40:51.600Z,2.51
2023-04-04T00:43:37.778Z,2.26
2023-04-04T00:46:24.965Z,2.01
2023-04-04T00:49:09.946Z,1.73
2023-04-04T00:51:55.368Z,1.62
2023-04-04T00:54:40.836Z,1.62
2023-04-04T00:57:28.739Z,1.75
2023-04-04T01:00:15.366Z,1.88
2023-04-04T01:03:00.964Z,1.89
2023-04-04T01:05:46.956Z,1.79
2023-04-04T01:08:33.125Z,1.70
2023-04-04T01:11:18.343Z,1.62
2023-04-04T01:14:03.653Z,1.63
2023-04-04T01:16:51.108Z,1.60
2023-04-04T01:19:49.460Z,1.61
2023-04-04T01:22:35.963Z,1.54
2023-04-04T01:25:30.197Z,1.72
2023-04-04T01:28:15.718Z,1.72
2023-04-04T01:31:02.988Z,1.69
2023-04-04T01:33:58.900Z,1.69
2023-04-04T01:37:17.173Z,1.63
2023-04-04T01:40:14.979Z,1.61
2023-04-04T01:43:00.354Z,1.65
2023-04-04T01:45:46.265Z,1.62
2023-04-04T01:48:31.499Z,1.59
2023-04-04T01:51:17.182Z,1.56
2023-04-04T01:54:02.033Z,1.42
2023-04-04T01:56:47.214Z,1.41
2023-04-04T01:59:32.574Z,1.43
2023-04-04T02:02:17.706Z,1.49
2023-04-04T02:05:04.222Z,1.48
2023-04-04T02:07:52.291Z,1.43
2023-04-04T02:10:37.323Z,1.39
2023-04-04T02:13:22.083Z,1.37
2023-04-04T02:16:07.245Z,1.39
2023-04-04T02:18:53.012Z,1.26
2023-04-04T02:21:37.911Z,1.33
2023-04-04T02:24:23.009Z,1.32
2023-04-04T02:27:08.105Z,1.26
2023-04-04T02:29:53.919Z,1.22
2023-04-04T02:32:40.020Z,1.15
2023-04-04T02:35:25.796Z,1.03
2023-04-04T02:38:10.867Z,0.95
2023-04-04T02:40:55.928Z,0.84
2023-04-04T02:43:41.168Z,0.93
2023-04-04T02:46:26.122Z,0.99
2023-04-04T02:49:12.595Z,1.01
2023-04-04T02:51:58.114Z,1.00
2023-04-04T02:54:43.436Z,1.00
2023-04-04T02:57:28.737Z,0.99
2023-04-04T03:00:13.822Z,0.95
2023-04-04T03:02:59.428Z,0.86
2023-04-04T03:05:44.987Z,0.79
2023-04-04T03:08:30.548Z,0.79
2023-04-04T03:11:21.240Z,0.83
2023-04-04T03:14:07.558Z,0.78
2023-04-04T03:16:53.693Z,0.81
2023-04-04T03:19:38.805Z,0.79
2023-04-04T03:22:23.993Z,0.72
2023-04-04T03:25:09.741Z,0.59
2023-04-04T03:27:54.990Z,0.61
2023-04-04T03:30:40.436Z,0.58
2023-04-04T03:33:25.764Z,0.61
2023-04-04T03:36:12.774Z,0.56
2023-04-04T03:38:57.966Z,0.48
2023-04-04T03:41:43.222Z,0.59
2023-04-04T03:44:28.205Z,0.58
2023-04-04T03:47:16.569Z,0.50
2023-04-04T03:50:02.415Z,0.38
2023-04-04T03:52:47.736Z,0.30
2023-04-04T03:55:33.975Z,0.28
2023-04-04T03:58:19.682Z,0.28
2023-04-04T04:01:05.042Z,0.32
2023-04-04T04:03:50.454Z,0.37
2023-04-04T04:06:35.879Z,0.36
2023-04-04T04:09:21.325Z,0.36
2023-04-04T04:12:06.892Z,0.36
2023-04-04T04:14:52.057Z,0.36
2023-04-04T04:17:41.119Z,0.39
2023-04-04T04:20:26.613Z,0.36
2023-04-04T04:23:11.772Z,0.34
2023-04-04T04:25:56.893Z,0.33
2023-04-04T04:28:42.159Z,0.25
2023-04-04T04:31:27.765Z,0.21
2023-04-04T04:34:13.689Z,0.20
2023-04-04T04:36:59.369Z,0.13
2023-04-04T04:39:44.291Z,0.12
2023-04-04T04:42:29.692Z,0.17
2023-04-04T04:45:14.830Z,0.16
2023-04-04T04:48:00.115Z,0.11
2023-04-04T04:50:46.087Z,0.14
2023-04-04T04:53:31.436Z,0.09
2023-04-04T04:56:16.681Z,-0.06
2023-04-04T04:59:01.737Z,0.03
2023-04-04T05:01:46.957Z,0.04
2023-04-04T05:04:32.445Z,-0.04
2023-04-04T05:07:17.590Z,0.00
2023-04-04T05:10:03.157Z,-0.03
2023-04-04T05:12:48.254Z,-0.03
2023-04-04T05:15:33.123Z,-0.16
2023-04-04T05:18:18.311Z,-0.16
2023-04-04T05:21:03.882Z,-0.19
2023-04-04T05:23:48.813Z,-0.26
2023-04-04T05:26:35.048Z,-0.27
2023-04-04T05:29:20.315Z,-0.27
2023-04-04T05:32:05.725Z,-0.20
2023-04-04T05:34:50.855Z,-0.19
2023-04-04T05:37:39.391Z,-0.20
2023-04-04T05:40:24.633Z,-0.19
2023-04-04T05:43:09.836Z,-0.17
2023-04-04T05:45:55.552Z,-0.27
2023-04-04T05:48:41.075Z,-0.24
2023-04-04T05:51:26.326Z,-0.18
2023-04-04T05:54:11.424Z,-0.14
2023-04-04T05:56:56.496Z,-0.12
2023-04-04T05:59:41.677Z,-0.04
2023-04-04T06:02:27.034Z,-0.03
2023-04-04T06:05:12.368Z,-0.01
2023-04-04T06:07:58.162Z,-0.02
2023-04-04T06:10:43.607Z,0.03
2023-04-04T06:13:28.824Z,0.05
2023-04-04T06:16:14.142Z,0.05
2023-04-04T06:18:59.246Z,0.04
2023-04-04T06:21:44.584Z,0.17
2023-04-04T06:24:29.804Z,0.17
2023-04-04T06:27:14.949Z,0.26
2023-04-04T06:30:00.297Z,0.35
2023-04-04T06:32:45.526Z,0.40
2023-04-04T06:35:30.980Z,0.43
2023-04-04T06:38:16.030Z,0.47
2023-04-04T06:41:01.312Z,0.61
2023-04-04T06:43:49.390Z,0.61
2023-04-04T06:46:37.408Z,0.78
2023-04-04T06:49:22.223Z,0.85
2023-04-04T06:52:07.154Z,0.98
2023-04-04T06:54:52.666Z,1.00
2023-04-04T06:57:38.537Z,1.20
2023-04-04T07:00:23.583Z,1.31
2023-04-04T07:03:08.841Z,1.48
2023-04-04T07:05:55.436Z,1.61
2023-04-04T07:08:40.777Z,1.72
2023-04-04T07:11:27.192Z,1.84
2023-04-04T07:14:12.764Z,1.91
2023-04-04T07:16:58.284Z,2.12
2023-04-04T07:19:43.580Z,2.19
2023-04-04T07:22:28.371Z,2.30
2023-04-04T07:25:13.561Z,2.46
2023-04-04T07:28:09.515Z,2.60
2023-04-04T07:31:01.823Z,2.73
2023-04-04T07:33:46.772Z,3.30
2023-04-04T07:36:31.875Z,3.30
2023-04-04T07:39:17.116Z,3.27
2023-04-04T07:42:02.321Z,3.25
2023-04-04T07:44:47.268Z,3.38
2023-04-04T07:47:32.534Z,3.45
2023-04-04T07:50:17.581Z,3.61
2023-04-04T07:53:02.841Z,4.02
2023-04-04T07:55:48.370Z,4.49
2023-04-04T07:58:34.278Z,4.49
2023-04-04T08:01:19.368Z,4.57
2023-04-04T08:04:05.722Z,4.59
2023-04-04T08:06:51.652Z,4.79
2023-04-04T08:09:36.794Z,4.86
2023-04-04T08:12:22.076Z,4.94
2023-04-04T08:15:07.863Z,4.99
2023-04-04T08:17:53.472Z,5.13
2023-04-04T08:20:39.021Z,5.22
2023-04-04T08:23:24.571Z,5.32
2023-04-04T08:26:09.814Z,5.37
2023-04-04T08:28:55.343Z,5.44
2023-04-04T08:31:41.330Z,5.58
2023-04-04T08:34:26.244Z,5.64
2023-04-04T08:37:11.434Z,5.74
2023-04-04T08:39:56.765Z,5.83
2023-04-04T08:42:44.348Z,5.91
2023-04-04T08:45:31.512Z,5.93
2023-04-04T08:48:17.966Z,6.00
2023-04-04T08:51:04.709Z,6.10
2023-04-04T08:53:51.283Z,6.28
2023-04-04T08:56:36.508Z,6.36
2023-04-04T08:59:22.112Z,6.46
2023-04-04T09:02:11.057Z,6.46
2023-04-04T09:05:05.424Z,6.66
2023-04-04T09:07:53.155Z,6.81
2023-04-04T09:10:40.041Z,6.92
2023-04-04T09:13:25.410Z,6.99
2023-04-04T09:16:10.510Z,7.06
2023-04-04T09:18:55.754Z,7.26
2023-04-04T09:21:47.125Z,7.33
2023-04-04T09:24:43.265Z,7.27
2023-04-04T09:27:28.404Z,7.37
2023-04-04T09:30:13.963Z,7.50
2023-04-04T09:33:05.006Z,7.63
2023-04-04T09:35:54.484Z,7.84
2023-04-04T09:38:43.285Z,7.86
2023-04-04T09:41:29.430Z,7.91
2023-04-04T09:44:16.587Z,8.00
2023-04-04T09:50:22.986Z,8.15
2023-04-04T09:53:08.651Z,8.28
2023-04-04T09:55:55.627Z,8.31
2023-04-04T09:58:52.483Z,8.49
2023-04-04T10:01:46.140Z,8.71
2023-04-04T10:04:32.332Z,8.71
2023-04-04T10:07:18.690Z,8.75
2023-04-04T10:10:09.061Z,8.93
2023-04-04T10:12:57.882Z,8.99
2023-04-04T10:15:44.720Z,9.15
2023-04-04T10:18:32.401Z,9.23
2023-04-04T10:21:17.766Z,9.28
2023-04-04T10:24:09.272Z,9.42
2023-04-04T10:26:55.427Z,9.43
2023-04-04T10:29:40.559Z,9.55
2023-04-04T10:32:53.840Z,9.65
2023-04-04T10:35:43.935Z,9.66
2023-04-04T10:38:31.578Z,9.66
2023-04-04T10:41:17.933Z,9.67
2023-04-04T10:44:17.531Z,9.92
2023-04-04T10:47:14.652Z,10.03
2023-04-04T10:50:00.679Z,10.01
2023-04-04T10:52:46.408Z,10.10
2023-04-04T10:55:33.214Z,10.33
2023-04-04T10:58:18.538Z,10.37
2023-04-04T11:01:03.909Z,10.48
2023-04-04T11:04:20.734Z,10.55
2023-04-04T11:07:10.231Z,10.66
2023-04-04T11:09:56.733Z,10.79
2023-04-04T11:12:46.112Z,11.18
2023-04-04T11:15:58.767Z,11.27
2023-04-04T11:18:45.364Z,11.28
2023-04-04T11:21:32.661Z,11.42
2023-04-04T11:24:17.745Z,11.54
2023-04-04T11:27:06.922Z,11.67
2023-04-04T11:29:55.380Z,11.83
2023-04-04T11:32:59.913Z,12.08
2023-04-04T11:35:50.255Z,11.99
2023-04-04T11:38:35.980Z,12.00
2023-04-04T11:41:21.588Z,12.16
2023-04-04T11:44:10.322Z,12.27
2023-04-04T11:47:04.349Z,12.39
2023-04-04T11:49:51.732Z,12.49
2023-04-04T11:52:38.311Z,12.63
2023-04-04T11:55:23.779Z,12.65
2023-04-04T11:58:12.812Z,12.82
2023-04-04T12:00:58.993Z,12.97
2023-04-04T12:03:44.330Z,12.86
2023-04-04T12:06:32.744Z,13.00
2023-04-04T12:09:20.249Z,13.15
2023-04-04T12:12:07.581Z,13.08
2023-04-04T12:15:00.214Z,13.16
2023-04-04T12:17:51.856Z,13.38
2023-04-04T12:20:41.507Z,13.59
2023-04-04T12:23:28.505Z,13.82
2023-04-04T12:26:14.032Z,13.92
2023-04-04T12:29:00.782Z,13.95
2023-04-04T12:31:47.228Z,13.95
2023-04-04T12:34:34.601Z,14.13
2023-04-04T12:37:22.314Z,14.30
2023-04-04T12:40:07.631Z,14.54
2023-04-04T12:42:53.050Z,14.77
2023-04-04T12:45:42.278Z,14.78
2023-04-04T12:48:29.669Z,14.85
2023-04-04T12:51:15.950Z,14.76
2023-04-04T12:54:01.369Z,14.79
2023-04-04T12:56:46.729Z,14.96
2023-04-04T12:59:34.000Z,15.03
2023-04-04T13:02:22.116Z,15.34
2023-04-04T13:05:10.136Z,15.63
2023-04-04T13:08:06.750Z,15.68
2023-04-04T13:10:59.678Z,15.70
2023-04-04T13:16:37.060Z,15.98
2023-04-04T13:19:23.078Z,16.17
2023-04-04T13:22:09.526Z,16.31
2023-04-04T13:24:54.354Z,16.42
2023-04-04T13:27:39.429Z,16.56
2023-04-04T13:30:24.704Z,16.69
2023-04-04T13:33:09.984Z,16.64
2023-04-04T13:35:55.263Z,16.71
2023-04-04T13:38:40.416Z,16.80
2023-04-04T13:41:25.869Z,16.82
2023-04-04T13:44:10.854Z,16.73
2023-04-04T13:46:56.045Z,16.95
2023-04-04T13:49:41.173Z,17.02
2023-04-04T13:52:26.375Z,17.20
2023-04-04T13:55:11.752Z,17.37
2023-04-04T13:57:57.216Z,17.68
2023-04-04T14:00:42.909Z,17.74
2023-04-04T14:03:28.071Z,17.81
2023-04-04T14:06:13.416Z,17.70
2023-04-04T14:08:58.682Z,18.01
2023-04-04T14:11:43.984Z,18.23
2023-04-04T14:14:29.351Z,18.43
2023-04-04T14:17:14.502Z,18.55
2023-04-04T14:19:59.908Z,18.67
2023-04-04T14:22:45.053Z,18.82
2023-04-04T14:25:30.060Z,18.82
2023-04-04T14:28:14.985Z,18.84
2023-04-04T14:31:00.245Z,19.09
2023-04-04T14:33:45.641Z,18.90
2023-04-04T14:36:31.696Z,19.08
2023-04-04T14:39:17.072Z,19.15
2023-04-04T14:42:01.927Z,18.91
2023-04-04T14:44:47.112Z,18.94
2023-04-04T14:47:32.318Z,18.92
2023-04-04T14:50:17.708Z,19.21
2023-04-04T14:53:03.135Z,19.55
2023-04-04T14:55:48.330Z,19.81
2023-04-04T14:58:33.521Z,20.10
2023-04-04T15:01:21.371Z,20.23
2023-04-04T15:04:07.333Z,20.24
2023-04-04T15:06:53.542Z,20.48
2023-04-04T15:09:38.641Z,20.40
2023-04-04T15:12:23.586Z,20.20
2023-04-04T15:15:09.133Z,20.37
2023-04-04T15:17:54.562Z,20.31
2023-04-04T15:20:40.473Z,20.43
2023-04-04T15:23:25.546Z,20.53
2023-04-04T15:26:10.693Z,20.56
2023-04-04T15:28:55.749Z,20.44
2023-04-04T15:31:41.066Z,20.42
2023-04-04T15:34:26.373Z,20.58
2023-04-04T15:37:12.230Z,20.21
2023-04-04T15:39:57.686Z,19.97
2023-04-04T15:42:42.874Z,19.78
2023-04-04T15:45:28.047Z,19.71
2023-04-04T15:48:13.353Z,19.58
2023-04-04T15:51:02.507Z,19.52
2023-04-04T15:53:47.988Z,19.35
2023-04-04T15:56:33.252Z,19.48
2023-04-04T15:59:18.201Z,19.54
2023-04-04T16:02:06.372Z,19.04
2023-04-04T16:04:51.692Z,18.66
2023-04-04T16:07:36.981Z,18.74
2023-04-04T16:10:22.112Z,18.36
2023-04-04T16:13:07.310Z,18.02
2023-04-04T16:15:52.828Z,17.40
2023-04-04T16:18:38.000Z,17.04
2023-04-04T16:21:23.324Z,16.80
2023-04-04T16:24:08.945Z,16.74
2023-04-04T16:26:54.119Z,16.59
2023-04-04T16:29:39.078Z,16.43
2023-04-04T16:32:24.145Z,16.18
2023-04-04T16:35:09.830Z,15.95
2023-04-04T16:37:55.449Z,15.89
2023-04-04T16:40:40.944Z,15.56
2023-04-04T16:43:27.028Z,15.40
2023-04-04T16:46:11.933Z,15.27
2023-04-04T16:48:57.028Z,15.17
2023-04-04T16:51:41.952Z,15.15
2023-04-04T16:54:27.285Z,15.00
2023-04-04T16:57:12.368Z,14.82
2023-04-04T16:59:57.512Z,14.70
2023-04-04T17:02:45.817Z,14.62
2023-04-04T17:05:31.202Z,14.49
2023-04-04T17:08:16.488Z,14.35
2023-04-04T17:11:01.795Z,14.09
2023-04-04T17:13:47.546Z,13.82
2023-04-04T17:16:32.446Z,13.71
2023-04-04T17:19:17.530Z,13.50
2023-04-04T17:22:03.278Z,13.26
2023-04-04T17:24:48.743Z,13.09
2023-04-04T17:27:33.760Z,13.15
2023-04-04T17:30:18.787Z,13.06
2023-04-04T17:33:04.291Z,12.94
2023-04-04T17:35:49.909Z,12.73
2023-04-04T17:38:36.044Z,12.61
2023-04-04T17:41:21.074Z,12.56
2023-04-04T17:44:06.321Z,12.50
2023-04-04T17:46:51.688Z,12.37
2023-04-04T17:49:37.169Z,12.35
2023-04-04T17:52:22.013Z,12.22
2023-04-04T17:55:08.716Z,12.05
2023-04-04T17:57:53.956Z,11.95
2023-04-04T18:00:39.568Z,11.94
2023-04-04T18:03:25.219Z,11.90
2023-04-04T18:06:10.615Z,11.86
2023-04-04T18:08:57.738Z,11.77
2023-04-04T18:11:42.995Z,11.59
2023-04-04T18:14:27.863Z,11.50
2023-04-04T18:17:13.230Z,11.38
2023-04-04T18:19:59.013Z,11.30
2023-04-04T18:22:45.746Z,11.10
2023-04-04T18:25:33.359Z,11.11
2023-04-04T18:28:18.322Z,11.00
2023-04-04T18:31:03.685Z,10.97
2023-04-04T18:33:49.894Z,10.93
2023-04-04T18:36:36.894Z,10.82
2023-04-04T18:39:22.142Z,10.71
2023-04-04T18:42:08.617Z,10.62
2023-04-04T18:44:53.882Z,10.49
2023-04-04T18:47:40.306Z,10.40
2023-04-04T18:50:26.356Z,10.31
2023-04-04T18:53:11.543Z,10.25
2023-04-04T18:55:57.892Z,10.20
2023-04-04T18:58:43.072Z,10.04
2023-04-04T19:01:28.782Z,10.00
2023-04-04T19:04:19.822Z,9.98
2023-04-04T19:07:08.885Z,9.88
2023-04-04T19:09:55.458Z,9.76
2023-04-04T19:12:40.408Z,9.74
2023-04-04T19:15:25.581Z,9.65
2023-04-04T19:18:11.834Z,9.58
2023-04-04T19:20:58.423Z,9.47
2023-04-04T19:23:43.521Z,9.38
2023-04-04T19:26:28.770Z,9.32
2023-04-04T19:29:21.062Z,9.13
2023-04-04T19:32:19.500Z,9.09
2023-04-04T19:35:20.539Z,9.00
2023-04-04T19:38:07.547Z,8.90
2023-04-04T19:40:59.193Z,8.80
2023-04-04T19:43:46.175Z,8.74
2023-04-04T19:46:33.178Z,8.66
2023-04-04T19:49:19.278Z,8.57
2023-04-04T19:52:05.689Z,8.55
2023-04-04T19:54:50.941Z,8.46
2023-04-04T19:57:37.659Z,8.49
2023-04-04T20:00:24.072Z,8.41
2023-04-04T20:03:24.082Z,8.34
2023-04-04T20:06:10.210Z,8.27
2023-04-04T20:08:57.696Z,8.19
2023-04-04T20:11:42.933Z,8.08
2023-04-04T20:14:28.651Z,7.90
2023-04-04T20:17:17.839Z,7.89
2023-04-04T20:20:08.994Z,7.80
2023-04-04T20:22:54.081Z,7.78
2023-04-04T20:25:41.823Z,7.77
2023-04-04T20:28:28.567Z,7.68
2023-04-04T20:31:17.942Z,7.61
2023-04-04T20:34:05.760Z,7.56
2023-04-04T20:36:51.044Z,7.48
2023-04-04T20:39:41.316Z,7.47
2023-04-04T20:42:26.175Z,7.44
2023-04-04T20:45:28.124Z,7.35
2023-04-04T20:48:33.885Z,7.24
2023-04-04T20:51:23.979Z,7.14
2023-04-04T20:54:09.611Z,7.00
2023-04-04T20:56:56.694Z,7.01
2023-04-04T20:59:43.585Z,6.90
2023-04-04T21:02:28.995Z,6.88
2023-04-04T21:05:27.770Z,6.81
2023-04-04T21:08:16.056Z,6.72
2023-04-04T21:11:01.328Z,6.67
2023-04-04T21:13:47.298Z,6.63
2023-04-04T21:16:32.424Z,6.62
2023-04-04T21:19:23.415Z,6.65
2023-04-04T21:22:09.036Z,6.51
2023-04-04T21:24:54.127Z,6.44
2023-04-04T21:27:39.358Z,6.24
2023-04-04T21:30:44.598Z,6.24
2023-04-04T21:33:29.643Z,6.16
2023-04-04T21:36:28.269Z,6.30
2023-04-04T21:39:25.592Z,6.29
2023-04-04T21:42:10.535Z,6.26
2023-04-04T21:44:55.899Z,6.25
2023-04-04T21:47:41.210Z,6.25
2023-04-04T21:50:26.275Z,6.08
2023-04-04T21:53:11.536Z,6.15
2023-04-04T21:55:57.088Z,6.08
2023-04-04T21:58:42.626Z,6.05
2023-04-04T22:01:28.195Z,5.96
2023-04-04T22:04:13.302Z,5.93
2023-04-04T22:06:58.417Z,5.94
2023-04-04T22:09:43.745Z,5.89
2023-04-04T22:12:28.584Z,5.80
2023-04-04T22:15:13.577Z,5.83
2023-04-04T22:18:05.117Z,5.80
2023-04-04T22:20:54.831Z,5.71
2023-04-04T22:23:40.331Z,5.65
2023-04-04T22:26:34.590Z,5.57
2023-04-04T22:29:20.028Z,5.49
2023-04-04T22:32:05.505Z,5.45
2023-04-04T22:34:50.757Z,5.28
2023-04-04T22:37:36.042Z,5.18
2023-04-04T22:40:21.288Z,4.92
2023-04-04T22:43:06.268Z,4.75
2023-04-04T22:45:51.851Z,4.61
2023-04-04T22:48:41.067Z,4.49
2023-04-04T22:51:26.203Z,4.42
2023-04-04T22:54:15.782Z,4.36
2023-04-04T22:57:01.298Z,4.31
2023-04-04T22:59:46.524Z,4.35
2023-04-04T23:02:31.753Z,4.33
2023-04-04T23:05:18.564Z,4.25
2023-04-04T23:08:03.945Z,4.21
2023-04-04T23:10:48.921Z,4.23
2023-04-04T23:13:34.786Z,4.26
2023-04-04T23:16:23.598Z,4.27
2023-04-04T23:19:09.007Z,4.19
2023-04-04T23:21:54.308Z,4.29
2023-04-04T23:24:40.290Z,4.31
2023-04-04T23:27:25.564Z,4.29
2023-04-04T23:30:11.704Z,4.21
2023-04-04T23:32:56.712Z,4.09
2023-04-04T23:35:42.003Z,3.95
2023-04-04T23:38:27.054Z,3.97
2023-04-04T23:41:12.636Z,3.92
2023-04-04T23:43:57.734Z,3.74
2023-04-04T23:46:42.991Z,3.76
2023-04-04T23:49:28.167Z,3.70
2023-04-04T23:52:13.059Z,3.68
2023-04-04T23:54:58.022Z,3.70
2023-04-04T23:57:43.828Z,3.64
